createdAt,value
2018-12-06T00:00:35.793Z,99215.20
2018-12-06T00:03:06.413Z,99213.09
2018-12-06T00:05:37.048Z,99201.86
2018-12-06T00:08:19.528Z,99202.13
2018-12-06T00:10:50.683Z,99205.25
2018-12-06T00:13:20.931Z,99200.31
2018-12-06T00:15:51.854Z,99204.00
2018-12-06T00:18:22.441Z,99196.03
2018-12-06T00:20:52.611Z,99189.16
2018-12-06T00:23:23.694Z,99195.34
2018-12-06T00:25:54.753Z,99197.05
2018-12-06T00:28:30.954Z,99196.53
2018-12-06T00:31:03.251Z,99192.94
2018-12-06T00:33:34.830Z,99194.09
2018-12-06T00:36:06.712Z,99192.64
2018-12-06T00:38:37.849Z,99195.77
2018-12-06T00:41:16.467Z,99192.45
2018-12-06T00:43:47.799Z,99180.42
2018-12-06T00:46:18.498Z,99185.20
2018-12-06T00:48:48.850Z,99180.23
2018-12-06T00:51:19.623Z,99176.23
2018-12-06T00:53:49.755Z,99176.86
2018-12-06T00:56:23.657Z,99183.71
2018-12-06T00:58:55.090Z,99180.81
2018-12-06T01:01:27.888Z,99172.69
2018-12-06T01:03:58.008Z,99167.68
2018-12-06T01:06:29.012Z,99173.05
2018-12-06T01:09:00.138Z,99165.34
2018-12-06T01:11:31.123Z,99172.22
2018-12-06T01:14:03.861Z,99172.58
2018-12-06T01:16:35.509Z,99170.28
2018-12-06T01:19:09.243Z,99174.03
2018-12-06T01:21:40.851Z,99174.98
2018-12-06T01:24:12.635Z,99174.85
2018-12-06T01:26:43.429Z,99165.83
2018-12-06T01:29:13.964Z,99174.23
2018-12-06T01:31:44.972Z,99173.73
2018-12-06T01:34:15.513Z,99169.33
2018-12-06T01:36:46.316Z,99164.68
2018-12-06T01:39:17.208Z,99162.37
2018-12-06T01:41:48.119Z,99167.64
2018-12-06T01:44:19.128Z,99155.45
2018-12-06T01:46:49.636Z,99155.78
2018-12-06T01:49:26.127Z,99162.13
2018-12-06T01:51:57.366Z,99164.31
2018-12-06T01:54:28.317Z,99160.47
2018-12-06T01:56:58.430Z,99161.66
2018-12-06T01:59:29.375Z,99161.03
2018-12-06T02:02:02.187Z,99157.91
2018-12-06T02:04:35.763Z,99156.00
2018-12-06T02:18:00.710Z,99142.20
2018-12-06T02:23:10.754Z,99142.38
2018-12-06T02:25:43.319Z,99138.48
2018-12-06T02:28:15.023Z,99125.88
2018-12-06T02:30:45.680Z,99116.89
2018-12-06T02:33:16.455Z,99115.58
2018-12-06T02:35:47.346Z,99119.39
2018-12-06T02:38:18.214Z,99114.33
2018-12-06T02:40:48.768Z,99116.39
2018-12-06T02:43:20.009Z,99106.69
2018-12-06T02:45:50.188Z,99101.17
2018-12-06T02:48:27.009Z,99098.45
2018-12-06T02:50:58.331Z,99098.16
2018-12-06T02:53:29.685Z,99093.52
2018-12-06T02:56:02.525Z,99096.52
2018-12-06T02:58:34.383Z,99103.92
2018-12-06T03:01:09.243Z,99101.75
2018-12-06T03:03:46.236Z,99111.33
2018-12-06T03:06:17.654Z,99117.22
2018-12-06T03:08:50.445Z,99112.45
2018-12-06T03:11:21.460Z,99120.19
2018-12-06T03:13:54.495Z,99114.78
2018-12-06T03:16:25.336Z,99100.96
2018-12-06T03:18:57.509Z,99096.26
2018-12-06T03:21:29.454Z,99096.98
2018-12-06T03:24:06.396Z,99094.26
2018-12-06T03:26:37.482Z,99082.16
2018-12-06T03:29:16.384Z,99082.98
2018-12-06T03:31:47.339Z,99069.68
2018-12-06T03:34:17.474Z,99059.97
2018-12-06T03:36:51.326Z,99062.34
2018-12-06T03:39:22.547Z,99055.11
2018-12-06T03:41:53.552Z,99045.63
2018-12-06T03:44:33.322Z,99055.95
2018-12-06T03:47:03.956Z,99062.53
2018-12-06T03:49:34.701Z,99069.12
2018-12-06T03:52:06.362Z,99069.94
2018-12-06T03:54:37.775Z,99063.48
2018-12-06T03:57:09.769Z,99069.54
2018-12-06T03:59:43.382Z,99073.66
2018-12-06T04:02:15.025Z,99066.21
2018-12-06T04:04:47.706Z,99070.30
2018-12-06T04:07:24.748Z,99062.13
2018-12-06T04:09:57.674Z,99082.38
2018-12-06T04:12:28.909Z,99118.74
2018-12-06T04:14:59.430Z,99116.94
2018-12-06T04:17:29.719Z,99113.97
2018-12-06T04:20:00.605Z,99092.41
2018-12-06T04:22:30.742Z,99092.09
2018-12-06T04:25:05.033Z,99079.39
2018-12-06T04:27:35.673Z,99057.84
2018-12-06T04:30:08.790Z,99051.46
2018-12-06T04:32:39.914Z,99042.92
2018-12-06T04:35:10.816Z,99045.59
2018-12-06T04:37:41.046Z,99046.95
2018-12-06T04:40:11.956Z,99023.23
2018-12-06T04:42:42.858Z,99023.94
2018-12-06T04:45:16.412Z,99080.77
2018-12-06T04:47:46.917Z,99125.42
2018-12-06T04:50:23.685Z,99107.63
2018-12-06T04:52:57.650Z,99105.98
2018-12-06T04:55:29.041Z,99102.03
2018-12-06T04:58:02.347Z,99070.77
2018-12-06T05:00:35.062Z,99044.44
2018-12-06T05:03:12.556Z,99074.09
2018-12-06T05:05:43.826Z,99093.83
2018-12-06T05:08:14.698Z,99088.38
2018-12-06T05:10:44.764Z,99089.19
2018-12-06T05:13:15.613Z,99104.86
2018-12-06T05:15:45.973Z,99098.27
2018-12-06T05:18:16.592Z,99098.44
2018-12-06T05:20:47.229Z,99104.89
2018-12-06T05:23:17.734Z,99100.45
2018-12-06T05:25:48.335Z,99095.19
2018-12-06T05:28:22.214Z,99093.80
2018-12-06T05:30:52.985Z,99103.14
2018-12-06T05:33:26.241Z,99105.78
2018-12-06T05:35:57.063Z,99099.83
2018-12-06T05:38:31.984Z,99099.95
2018-12-06T05:41:04.852Z,99099.76
2018-12-06T05:43:36.224Z,99105.55
2018-12-06T05:46:09.034Z,99114.44
2018-12-06T05:48:39.823Z,99113.94
2018-12-06T05:51:10.325Z,99123.28
2018-12-06T05:53:46.894Z,99117.20
2018-12-06T05:56:18.427Z,99112.27
2018-12-06T05:58:51.108Z,99106.73
2018-12-06T06:01:23.997Z,99112.23
2018-12-06T06:03:56.198Z,99102.06
2018-12-06T06:06:27.219Z,99102.85
2018-12-06T06:09:01.097Z,99099.92
2018-12-06T06:11:31.594Z,99106.17
2018-12-06T06:14:02.108Z,99106.37
2018-12-06T06:16:32.450Z,99106.73
2018-12-06T06:19:09.228Z,99109.81
2018-12-06T06:21:46.069Z,99117.57
2018-12-06T06:24:16.174Z,99120.20
2018-12-06T06:26:47.283Z,99123.27
2018-12-06T06:29:20.316Z,99124.91
2018-12-06T06:31:51.384Z,99121.09
2018-12-06T06:34:21.906Z,99119.91
2018-12-06T06:36:52.490Z,99131.23
2018-12-06T06:39:23.408Z,99139.27
2018-12-06T06:41:53.769Z,99138.02
2018-12-06T06:44:24.546Z,99137.50
2018-12-06T06:46:54.666Z,99139.11
2018-12-06T06:49:25.383Z,99139.94
2018-12-06T06:51:57.327Z,99138.84
2018-12-06T06:54:30.833Z,99142.30
2018-12-06T06:57:03.511Z,99140.43
2018-12-06T06:59:35.521Z,99142.05
2018-12-06T07:02:08.561Z,99142.61
2018-12-06T07:04:44.820Z,99147.02
2018-12-06T07:07:15.666Z,99150.60
2018-12-06T07:09:46.400Z,99149.38
2018-12-06T07:12:20.416Z,99151.69
2018-12-06T07:14:51.542Z,99156.56
2018-12-06T07:17:24.601Z,99160.77
2018-12-06T07:19:58.471Z,99156.09
2018-12-06T07:22:31.477Z,99161.30
2018-12-06T07:25:02.588Z,99165.35
2018-12-06T07:27:35.573Z,99163.77
2018-12-06T07:30:12.256Z,99166.63
2018-12-06T07:32:41.294Z,99170.25
2018-12-06T07:35:14.153Z,99170.16
2018-12-06T07:37:44.864Z,99170.71
2018-12-06T07:40:15.701Z,99165.52
2018-12-06T07:42:46.025Z,99175.88
2018-12-06T07:45:16.593Z,99176.83
2018-12-06T07:47:52.387Z,99184.14
2018-12-06T07:50:24.518Z,99181.12
2018-12-06T07:52:54.572Z,99177.47
2018-12-06T07:55:24.715Z,99179.80
2018-12-06T07:57:58.585Z,99184.64
2018-12-06T08:00:30.793Z,99188.66
2018-12-06T08:03:03.505Z,99190.14
2018-12-06T08:05:35.556Z,99183.42
2018-12-06T08:08:07.848Z,99190.03
2018-12-06T08:10:38.737Z,99186.17
2018-12-06T08:13:12.740Z,99187.77
2018-12-06T08:15:42.824Z,99189.16
2018-12-06T08:18:13.772Z,99191.27
2018-12-06T08:20:45.521Z,99196.76
2018-12-06T08:23:15.682Z,99189.16
2018-12-06T08:25:47.048Z,99192.77
2018-12-06T08:28:18.930Z,99200.68
2018-12-06T08:30:51.840Z,99200.21
2018-12-06T08:33:23.948Z,99198.07
2018-12-06T08:35:55.100Z,99131.64
2018-12-06T08:38:25.420Z,99199.82
2018-12-06T08:40:55.860Z,99204.27
2018-12-06T08:43:26.549Z,99203.34
2018-12-06T08:45:56.896Z,99196.59
2018-12-06T08:48:31.561Z,99199.22
2018-12-06T08:51:01.793Z,99201.66
2018-12-06T08:53:32.087Z,99203.84
2018-12-06T08:56:03.075Z,99203.30
2018-12-06T08:58:40.812Z,99209.00
2018-12-06T09:01:13.498Z,99203.86
2018-12-06T09:03:43.894Z,99203.91
2018-12-06T09:06:15.126Z,99211.73
2018-12-06T09:08:45.385Z,99209.84
2018-12-06T09:11:16.079Z,99206.80
2018-12-06T09:13:46.998Z,99215.08
2018-12-06T09:16:20.865Z,99211.71
2018-12-06T09:18:57.940Z,99219.55
2018-12-06T09:21:28.280Z,99212.59
2018-12-06T09:24:00.087Z,99207.27
2018-12-06T09:26:30.575Z,99203.56
2018-12-06T09:29:03.065Z,99207.67
2018-12-06T09:31:35.241Z,99209.70
2018-12-06T09:34:11.449Z,99208.16
2018-12-06T09:36:42.124Z,99206.48
2018-12-06T09:39:12.789Z,99209.68
2018-12-06T09:41:43.031Z,99214.33
2018-12-06T09:44:13.192Z,99209.73
2018-12-06T09:46:44.184Z,99206.86
2018-12-06T09:49:15.058Z,99214.16
2018-12-06T09:51:45.742Z,99202.66
2018-12-06T09:54:19.869Z,99199.36
2018-12-06T09:56:53.219Z,99203.13
2018-12-06T09:59:23.717Z,99198.63
2018-12-06T10:01:54.238Z,99199.58
2018-12-06T10:04:25.248Z,99192.94
2018-12-06T10:07:02.065Z,99199.17
2018-12-06T10:09:32.269Z,99199.41
2018-12-06T10:12:06.255Z,99200.52
2018-12-06T10:18:11.392Z,99197.93
2018-12-06T10:24:43.415Z,99203.08
2018-12-06T10:27:14.305Z,99193.03
2018-12-06T10:29:45.597Z,99197.96
2018-12-06T10:32:18.159Z,99203.07
2018-12-06T10:34:53.471Z,99208.95
2018-12-06T10:37:23.516Z,99200.52
2018-12-06T10:39:57.031Z,99197.59
2018-12-06T10:42:27.572Z,99193.07
2018-12-06T10:44:58.711Z,99201.31
2018-12-06T10:47:31.788Z,99203.77
2018-12-06T10:50:02.510Z,99203.58
2018-12-06T10:52:32.697Z,99206.08
2018-12-06T10:55:03.884Z,99196.03
2018-12-06T10:57:34.550Z,99191.70
2018-12-06T11:00:06.734Z,99201.31
2018-12-06T11:02:43.984Z,99203.13
2018-12-06T11:05:17.086Z,99204.31
2018-12-06T11:07:49.701Z,99201.67
2018-12-06T11:10:21.932Z,99205.70
2018-12-06T11:12:54.416Z,99205.30
2018-12-06T11:15:27.781Z,99205.22
2018-12-06T11:17:58.893Z,99198.25
2018-12-06T11:20:32.423Z,99201.19
2018-12-06T11:23:02.907Z,99203.66
2018-12-06T11:25:36.181Z,99202.47
2018-12-06T11:28:08.423Z,99208.48
2018-12-06T11:30:38.811Z,99214.25
2018-12-06T11:33:12.501Z,99220.24
2018-12-06T11:35:44.947Z,99220.56
2018-12-06T11:38:15.881Z,99210.39
2018-12-06T11:40:50.940Z,99209.84
2018-12-06T11:43:28.990Z,99207.65
2018-12-06T11:46:00.719Z,99197.98
2018-12-06T11:48:31.964Z,99199.16
2018-12-06T11:51:04.930Z,99204.06
2018-12-06T11:53:35.674Z,99202.50
2018-12-06T11:56:06.304Z,99194.47
2018-12-06T11:58:37.116Z,99200.23
2018-12-06T12:01:07.698Z,99204.65
2018-12-06T12:03:40.409Z,99211.04
2018-12-06T12:06:11.833Z,99207.48
2018-12-06T12:08:47.444Z,99207.09
2018-12-06T12:11:19.723Z,99201.44
2018-12-06T12:13:49.820Z,99194.84
2018-12-06T12:20:16.008Z,99208.61
2018-12-06T12:22:49.850Z,99205.67
2018-12-06T12:25:21.265Z,99212.77
2018-12-06T12:27:51.962Z,99202.39
2018-12-06T12:30:23.056Z,99202.47
2018-12-06T12:32:55.845Z,99201.39
2018-12-06T12:35:27.046Z,99205.97
2018-12-06T12:41:52.506Z,99200.70
2018-12-06T12:44:24.733Z,99200.65
2018-12-06T12:46:57.493Z,99189.77
2018-12-06T12:49:30.172Z,99195.88
2018-12-06T12:52:01.188Z,99200.20
2018-12-06T12:54:32.217Z,99199.38
2018-12-06T12:57:08.517Z,99205.02
2018-12-06T12:59:39.218Z,99202.72
2018-12-06T13:02:10.053Z,99196.48
2018-12-06T13:04:40.469Z,99194.80
2018-12-06T13:07:13.372Z,99191.80
2018-12-06T13:09:45.120Z,99192.29
2018-12-06T13:12:18.803Z,99190.15
2018-12-06T13:14:49.103Z,99189.53
2018-12-06T13:17:20.498Z,99192.29
2018-12-06T13:19:53.711Z,99181.61
2018-12-06T13:22:24.334Z,99177.66
2018-12-06T13:24:55.752Z,99176.34
2018-12-06T13:27:26.324Z,99175.64
2018-12-06T13:29:59.732Z,99174.94
2018-12-06T13:32:30.715Z,99175.89
2018-12-06T13:35:01.518Z,99186.77
2018-12-06T13:37:32.148Z,99182.19
2018-12-06T13:40:06.456Z,99181.53
2018-12-06T13:42:37.143Z,99173.95
2018-12-06T13:45:09.732Z,99172.95
2018-12-06T13:47:41.077Z,99168.88
2018-12-06T13:50:13.710Z,99166.12
2018-12-06T13:52:45.492Z,99170.25
2018-12-06T13:55:18.970Z,99168.60
2018-12-06T13:57:51.659Z,99178.98
2018-12-06T14:00:25.183Z,99171.56
2018-12-06T14:02:57.039Z,99159.89
2018-12-06T14:05:29.456Z,99159.37
2018-12-06T14:08:00.556Z,99162.66
2018-12-06T14:10:35.608Z,99159.52
2018-12-06T14:13:07.856Z,99164.14
2018-12-06T14:15:39.129Z,99170.62
2018-12-06T14:18:12.322Z,99179.34
2018-12-06T14:20:45.234Z,99182.98
2018-12-06T14:23:15.854Z,99177.91
2018-12-06T14:25:46.494Z,99178.28
2018-12-06T14:28:21.638Z,99182.36
2018-12-06T14:30:53.520Z,99177.04
2018-12-06T14:33:24.933Z,99173.70
2018-12-06T14:35:55.654Z,99180.09
2018-12-06T14:38:27.985Z,99184.38
2018-12-06T14:40:59.990Z,99187.22
2018-12-06T14:43:31.036Z,99184.58
2018-12-06T14:49:56.485Z,99193.81
2018-12-06T14:52:28.161Z,99193.28
2018-12-06T14:55:00.950Z,99193.41
2018-12-06T14:57:31.921Z,99200.90
2018-12-06T15:00:02.049Z,99207.98
2018-12-06T15:02:32.570Z,99198.30
2018-12-06T15:05:03.440Z,99205.39
2018-12-06T15:07:35.783Z,99213.51
2018-12-06T15:10:08.892Z,99217.27
2018-12-06T15:12:40.013Z,99215.65
2018-12-06T15:15:11.895Z,99216.64
2018-12-06T15:17:45.887Z,99217.79
2018-12-06T15:20:16.461Z,99223.36
2018-12-06T15:22:46.814Z,99226.31
2018-12-06T15:25:18.440Z,99220.52
2018-12-06T15:27:51.791Z,99221.66
2018-12-06T15:30:22.200Z,99215.32
2018-12-06T15:32:52.705Z,99209.67
2018-12-06T15:35:23.909Z,99207.98
2018-12-06T15:37:56.881Z,99214.25
2018-12-06T15:40:31.931Z,99217.22
2018-12-06T15:43:03.474Z,99227.77
2018-12-06T15:45:36.677Z,99242.27
2018-12-06T15:48:09.470Z,99229.45
2018-12-06T15:50:40.602Z,99231.59
2018-12-06T15:53:11.229Z,99233.08
2018-12-06T15:55:41.474Z,99246.27
2018-12-06T15:58:12.333Z,99244.33
2018-12-06T16:00:45.869Z,99237.73
2018-12-06T16:03:16.056Z,99236.09
2018-12-06T16:05:46.736Z,99231.14
2018-12-06T16:08:18.309Z,99242.97
2018-12-06T16:10:51.182Z,99234.69
2018-12-06T16:13:29.700Z,99239.06
2018-12-06T16:16:01.369Z,99234.28
2018-12-06T16:18:32.159Z,99241.70
2018-12-06T16:21:05.108Z,99249.62
2018-12-06T16:23:36.181Z,99250.44
2018-12-06T16:26:07.197Z,99249.81
2018-12-06T16:28:40.296Z,99254.06
2018-12-06T16:31:13.176Z,99253.45
2018-12-06T16:33:45.851Z,99252.00
2018-12-06T16:36:19.143Z,99254.64
2018-12-06T16:38:52.130Z,99257.27
2018-12-06T16:41:25.118Z,99260.73
2018-12-06T16:44:06.036Z,99252.99
2018-12-06T16:46:39.689Z,99248.54
2018-12-06T16:49:12.504Z,99244.91
2018-12-06T16:51:45.741Z,99247.22
2018-12-06T16:57:54.273Z,99254.52
2018-12-06T17:00:26.610Z,99246.59
2018-12-06T17:02:58.323Z,99250.55
2018-12-06T17:05:33.953Z,99251.17
2018-12-06T17:08:10.887Z,99252.13
2018-12-06T17:10:47.539Z,99258.22
2018-12-06T17:13:20.990Z,99257.73
2018-12-06T17:15:52.024Z,99254.06
2018-12-06T17:18:23.753Z,99246.81
2018-12-06T17:20:56.220Z,99249.13
2018-12-06T17:23:29.981Z,99256.66
2018-12-06T17:29:36.798Z,99238.24
2018-12-06T17:32:07.537Z,99242.03
2018-12-06T17:34:40.871Z,99241.83
2018-12-06T17:37:11.259Z,99237.88
2018-12-06T17:39:42.117Z,99244.09
2018-12-06T17:42:12.872Z,99244.47
2018-12-06T17:44:46.541Z,99245.98
2018-12-06T17:47:19.903Z,99249.25
2018-12-06T17:49:54.911Z,99245.62
2018-12-06T17:52:30.130Z,99252.01
2018-12-06T17:55:00.689Z,99248.88
2018-12-06T17:57:31.874Z,99255.97
2018-12-06T18:00:02.309Z,99261.20
2018-12-06T18:02:32.827Z,99264.45
2018-12-06T18:05:07.025Z,99265.45
2018-12-06T18:07:37.827Z,99260.83
2018-12-06T18:10:12.858Z,99254.03
2018-12-06T18:12:45.977Z,99242.78
2018-12-06T18:18:03.123Z,99229.75
2018-12-06T18:20:35.455Z,99227.73
2018-12-06T18:23:10.678Z,99224.59
2018-12-06T18:25:44.311Z,99225.53
2018-12-06T18:28:15.192Z,99237.53
2018-12-06T18:30:50.257Z,99240.80
2018-12-06T18:33:23.763Z,99238.97
2018-12-06T18:35:56.471Z,99245.98
2018-12-06T18:38:29.212Z,99251.92
2018-12-06T18:41:00.479Z,99248.95
2018-12-06T18:43:39.947Z,99243.50
2018-12-06T18:46:11.470Z,99248.25
2018-12-06T18:48:49.496Z,99251.02
2018-12-06T18:51:20.226Z,99245.73
2018-12-06T18:53:51.446Z,99245.24
2018-12-06T18:56:24.199Z,99235.83
2018-12-06T18:58:54.824Z,99237.45
2018-12-06T19:01:25.771Z,99247.45
2018-12-06T19:07:58.192Z,99252.03
2018-12-06T19:10:29.626Z,99253.67
2018-12-06T19:13:03.649Z,99247.08
2018-12-06T19:15:53.697Z,99246.50
2018-12-06T19:18:29.578Z,99239.08
2018-12-06T19:21:01.209Z,99239.08
2018-12-06T19:23:31.948Z,99235.23
2018-12-06T19:26:04.522Z,99232.10
2018-12-06T19:28:37.261Z,99234.04
2018-12-06T19:31:09.578Z,99237.00
2018-12-06T19:33:40.997Z,99241.66
2018-12-06T19:36:18.841Z,99239.44
2018-12-06T19:39:05.710Z,99233.66
2018-12-06T19:41:36.281Z,99234.60
2018-12-06T19:44:08.224Z,99220.45
2018-12-06T19:46:39.343Z,99226.23
2018-12-06T19:49:10.338Z,99221.28
2018-12-06T19:51:45.098Z,99205.41
2018-12-06T19:54:22.305Z,99206.17
2018-12-06T19:57:00.208Z,99224.66
2018-12-06T19:59:33.940Z,99233.90
2018-12-06T20:02:04.310Z,99228.62
2018-12-06T20:05:05.657Z,99225.69
2018-12-06T20:07:40.131Z,99230.27
2018-12-06T20:10:13.895Z,99230.59
2018-12-06T20:12:55.263Z,99233.02
2018-12-06T20:15:31.351Z,99228.56
2018-12-06T20:18:02.520Z,99220.97
2018-12-06T20:20:33.610Z,99227.19
2018-12-06T20:23:07.774Z,99232.47
2018-12-06T20:25:38.819Z,99234.78
2018-12-06T20:28:11.906Z,99220.26
2018-12-06T20:30:44.276Z,99223.52
2018-12-06T20:33:20.512Z,99216.73
2018-12-06T20:35:52.259Z,99223.63
2018-12-06T20:38:26.617Z,99223.46
2018-12-06T20:40:57.402Z,99220.67
2018-12-06T20:43:28.987Z,99222.87
2018-12-06T20:46:01.232Z,99210.48
2018-12-06T20:48:32.893Z,99212.63
2018-12-06T20:51:06.824Z,99212.92
2018-12-06T20:53:43.513Z,99215.56
2018-12-06T20:56:18.136Z,99216.00
2018-12-06T20:58:58.350Z,99217.00
2018-12-06T21:01:30.350Z,99211.66
2018-12-06T21:04:04.340Z,99204.12
2018-12-06T21:06:42.398Z,99201.30
2018-12-06T21:09:18.764Z,99203.41
2018-12-06T21:11:53.177Z,99192.17
2018-12-06T21:14:29.164Z,99191.53
2018-12-06T21:17:10.669Z,99185.25
2018-12-06T21:19:42.623Z,99183.22
2018-12-06T21:22:15.136Z,99175.00
2018-12-06T21:24:51.561Z,99183.16
2018-12-06T21:27:23.984Z,99180.52
2018-12-06T21:30:00.271Z,99182.77
2018-12-06T21:32:35.189Z,99191.38
2018-12-06T21:35:08.767Z,99181.45
2018-12-06T21:37:40.421Z,99178.87
2018-12-06T21:40:13.912Z,99183.45
2018-12-06T21:42:48.992Z,99183.54
2018-12-06T21:45:23.694Z,99182.39
2018-12-06T21:48:03.346Z,99187.39
2018-12-06T21:50:40.016Z,99184.25
2018-12-06T21:53:20.910Z,99193.40
2018-12-06T21:55:52.948Z,99185.41
2018-12-06T21:58:25.474Z,99181.73
2018-12-06T22:01:22.219Z,99164.56
2018-12-06T22:03:54.684Z,99178.80
2018-12-06T22:06:29.157Z,99166.53
2018-12-06T22:09:03.568Z,99167.03
2018-12-06T22:11:43.210Z,99169.19
2018-12-06T22:14:14.815Z,99164.55
2018-12-06T22:16:52.453Z,99057.80
2018-12-06T22:19:23.213Z,99165.32
2018-12-06T22:21:57.468Z,99162.25
2018-12-06T22:24:33.147Z,99169.23
2018-12-06T22:27:04.692Z,99169.23
2018-12-06T22:29:43.770Z,99158.49
2018-12-06T22:32:16.937Z,99169.84
2018-12-06T22:34:48.554Z,99158.99
2018-12-06T22:37:21.837Z,99154.00
2018-12-06T22:39:58.095Z,99147.61
2018-12-06T22:42:30.395Z,99150.86
2018-12-06T22:45:14.758Z,99141.61
2018-12-06T22:51:29.014Z,99132.47
2018-12-06T22:54:00.199Z,99124.26
2018-12-06T22:56:31.791Z,99124.37
2018-12-06T22:59:11.095Z,99130.33
2018-12-06T23:01:50.599Z,99132.69
2018-12-06T23:04:26.361Z,99122.94
2018-12-06T23:07:28.904Z,99135.12
2018-12-06T23:14:06.761Z,99121.84
2018-12-06T23:16:38.796Z,99128.44
2018-12-06T23:19:09.978Z,99119.48
2018-12-06T23:21:52.253Z,99112.20
2018-12-06T23:24:29.503Z,99120.02
2018-12-06T23:27:08.361Z,99112.09
2018-12-06T23:29:42.541Z,99108.78
2018-12-06T23:32:17.035Z,99109.60
2018-12-06T23:35:08.064Z,99123.64
2018-12-06T23:37:39.869Z,99128.42
2018-12-06T23:40:18.577Z,99130.35
2018-12-06T23:42:54.918Z,99127.61
2018-12-06T23:45:33.978Z,99123.97
2018-12-06T23:48:17.347Z,99120.92
2018-12-06T23:50:49.943Z,99120.53
2018-12-06T23:53:33.883Z,99109.25
2018-12-06T23:56:05.563Z,99101.92
2018-12-06T23:58:40.900Z,99104.17
